Time;durP1;ratioP1;P1;durP2;ratioP2;P2;SDS_P1;SDS_P2;PMS_P1;PMS_P2;Temp;Humidity;BMP_temperature;BMP_pressure;BME280_temperature;BME280_humidity;BME280_pressure;Samples;Min_cycle;Max_cycle;Signal;HPM_P1;HPM_P2
2023/04/20 00:02:01;;;;;;;5.47;2.33;;;8.30;99.90;;;;;;4025264;29;20611;-91
2023/04/20 00:04:02;;;;;;;6.60;2.80;;;8.30;99.90;;;;;;4024986;29;20282;-92
2023/04/20 00:06:03;;;;;;;5.93;2.83;;;8.30;99.90;;;;;;4025244;29;20190;-91
2023/04/20 00:08:04;;;;;;;7.87;2.80;;;8.40;99.90;;;;;;4040120;29;20169;-92
2023/04/20 00:10:06;;;;;;;6.30;2.70;;;8.40;99.90;;;;;;4024784;29;20197;-93
2023/04/20 00:12:06;;;;;;;8.73;2.80;;;8.40;99.90;;;;;;4040247;29;20174;-91
2023/04/20 00:14:07;;;;;;;6.07;2.90;;;8.40;99.90;;;;;;4039972;29;20205;-92
2023/04/20 00:16:08;;;;;;;9.63;2.93;;;8.40;99.90;;;;;;4024680;29;20190;-92
2023/04/20 00:18:09;;;;;;;5.20;2.50;;;8.30;99.90;;;;;;4040228;29;20177;-91
2023/04/20 00:20:11;;;;;;;7.17;2.73;;;8.30;99.90;;;;;;4024613;29;20174;-92
2023/04/20 00:22:12;;;;;;;4.40;2.87;;;8.20;99.90;;;;;;4024776;29;20174;-91
2023/04/20 00:24:13;;;;;;;8.43;2.77;;;8.20;99.90;;;;;;4024646;29;20213;-93
2023/04/20 00:26:14;;;;;;;6.80;2.63;;;8.30;99.90;;;;;;4024721;29;20182;-90
2023/04/20 00:28:16;;;;;;;7.60;2.93;;;8.20;99.90;;;;;;4024649;29;20221;-92
2023/04/20 00:30:17;;;;;;;9.07;2.80;;;8.20;99.90;;;;;;4039891;29;20189;-93
2023/04/20 00:32:17;;;;;;;7.50;2.77;;;8.20;99.90;;;;;;4024602;29;20179;-91
2023/04/20 00:34:19;;;;;;;8.23;3.10;;;8.10;99.90;;;;;;4039934;29;20206;-91
2023/04/20 00:36:20;;;;;;;9.70;3.20;;;8.20;99.90;;;;;;4024545;29;20687;-92
2023/04/20 00:38:21;;;;;;;6.20;2.87;;;8.10;99.90;;;;;;4039908;29;20177;-92
2023/04/20 00:40:22;;;;;;;11.90;3.37;;;8.10;99.90;;;;;;4024362;29;20213;-91
2023/04/20 00:42:22;;;;;;;9.23;3.17;;;8.00;99.90;;;;;;4024401;29;20178;-92
2023/04/20 00:44:25;;;;;;;7.50;2.97;;;8.10;99.90;;;;;;4024413;29;20747;-91
2023/04/20 00:46:26;;;;;;;6.57;2.67;;;8.10;99.90;;;;;;4024327;29;20174;-92
2023/04/20 00:48:26;;;;;;;5.77;2.70;;;8.10;99.90;;;;;;4024344;29;20240;-91
2023/04/20 00:50:27;;;;;;;7.47;2.77;;;8.10;99.90;;;;;;4024142;29;20223;-92
2023/04/20 00:52:28;;;;;;;6.10;2.57;;;8.10;99.90;;;;;;4024304;29;20182;-91
2023/04/20 00:54:32;;;;;;;9.43;3.13;;;8.00;99.90;;;;;;4039454;29;20197;-93
2023/04/20 00:56:33;;;;;;;6.23;2.80;;;8.00;99.90;;;;;;4039443;29;20722;-92
2023/04/20 00:58:33;;;;;;;8.93;2.93;;;8.00;99.90;;;;;;4024130;29;20188;-91
2023/04/20 01:00:34;;;;;;;5.37;3.07;;;8.00;99.90;;;;;;4039452;29;20215;-93
2023/04/20 01:02:35;;;;;;;7.57;3.03;;;8.00;99.90;;;;;;4024102;29;20185;-91
2023/04/20 01:04:35;;;;;;;6.87;3.07;;;7.90;99.90;;;;;;4038557;29;20206;-92
2023/04/20 01:06:37;;;;;;;6.63;2.97;;;7.90;99.90;;;;;;4023930;29;20170;-91
2023/04/20 01:08:50;;;;;;;6.43;2.43;;;7.80;99.90;;;;;;4039181;29;20257;-92
2023/04/20 01:10:51;;;;;;;8.30;2.80;;;7.70;99.90;;;;;;4024079;29;20188;-91
2023/04/20 01:12:52;;;;;;;5.83;2.47;;;7.70;99.90;;;;;;4039269;29;20268;-91
2023/04/20 01:14:52;;;;;;;9.77;2.77;;;7.70;99.90;;;;;;4023855;29;20731;-91
2023/04/20 01:16:54;;;;;;;7.60;3.00;;;7.70;99.90;;;;;;4038777;29;20186;-91
2023/04/20 01:18:55;;;;;;;6.00;2.60;;;7.70;99.90;;;;;;4023574;29;20188;-94
2023/04/20 01:20:55;;;;;;;5.97;2.80;;;7.70;99.90;;;;;;4023898;29;20206;-93
2023/04/20 01:22:56;;;;;;;3.07;2.13;;;7.70;99.90;;;;;;4023852;29;20190;-91
2023/04/20 01:24:57;;;;;;;5.97;3.20;;;7.80;99.90;;;;;;4023627;29;20334;-91
2023/04/20 01:26:58;;;;;;;8.07;2.90;;;7.80;99.90;;;;;;4023271;29;20206;-91
2023/04/20 01:28:58;;;;;;;7.07;2.70;;;7.80;99.90;;;;;;4023421;29;20301;-91
2023/04/20 01:30:59;;;;;;;8.27;2.73;;;7.70;99.90;;;;;;4023605;29;20659;-91
2023/04/20 01:33:00;;;;;;;7.63;2.90;;;7.70;99.90;;;;;;4023603;29;20178;-93
2023/04/20 01:35:02;;;;;;;5.43;3.03;;;7.60;99.90;;;;;;4023457;29;20805;-91
2023/04/20 01:37:06;;;;;;;9.00;3.10;;;7.60;99.90;;;;;;4023557;29;20170;-93
2023/04/20 01:39:07;;;;;;;6.57;3.20;;;7.60;99.90;;;;;;4023714;29;20628;-92
2023/04/20 01:41:09;;;;;;;4.90;2.80;;;7.50;99.90;;;;;;4038910;29;20212;-91
2023/04/20 01:43:10;;;;;;;9.13;3.20;;;7.50;99.90;;;;;;4038850;29;20706;-92
2023/04/20 01:45:12;;;;;;;8.13;3.20;;;7.50;99.90;;;;;;4038680;29;20201;-91
2023/04/20 01:47:13;;;;;;;5.77;2.30;;;7.50;99.90;;;;;;4038681;29;20181;-91
2023/04/20 01:49:14;;;;;;;7.10;2.97;;;7.50;99.90;;;;;;4038939;29;20252;-93
2023/04/20 01:51:15;;;;;;;9.30;2.90;;;7.50;99.90;;;;;;4038861;29;20170;-93
2023/04/20 01:53:16;;;;;;;9.80;3.30;;;7.40;99.90;;;;;;4023612;29;20220;-90
2023/04/20 01:55:19;;;;;;;7.67;2.60;;;7.30;99.90;;;;;;4038420;29;20554;-92
2023/04/20 01:57:19;;;;;;;7.23;3.03;;;7.30;99.90;;;;;;4023240;29;20178;-91
2023/04/20 01:59:20;;;;;;;11.50;2.60;;;7.30;99.90;;;;;;4038483;29;20666;-93
2023/04/20 02:01:21;;;;;;;6.83;2.43;;;7.30;99.90;;;;;;4023099;29;20198;-91
2023/04/20 02:03:21;;;;;;;6.33;2.90;;;7.30;99.90;;;;;;4038396;29;20608;-90
2023/04/20 02:05:22;;;;;;;4.37;2.70;;;7.40;99.90;;;;;;4023278;29;20190;-91
2023/04/20 02:07:23;;;;;;;5.63;3.03;;;7.30;99.90;;;;;;4038442;29;20178;-92
2023/04/20 02:09:24;;;;;;;11.93;3.07;;;7.30;99.90;;;;;;4022964;29;20580;-91
2023/04/20 02:11:25;;;;;;;8.07;2.97;;;7.20;99.90;;;;;;4038349;29;20600;-93
2023/04/20 02:13:25;;;;;;;7.40;3.10;;;7.20;99.90;;;;;;4022978;29;20244;-91
2023/04/20 02:15:26;;;;;;;6.03;2.40;;;7.20;99.90;;;;;;4037971;29;20654;-91
2023/04/20 02:17:27;;;;;;;6.47;2.87;;;7.20;99.90;;;;;;4022270;29;20667;-92
2023/04/20 02:19:28;;;;;;;7.40;2.97;;;7.20;99.90;;;;;;4038050;29;20261;-91
2023/04/20 02:21:28;;;;;;;10.77;2.77;;;7.20;99.90;;;;;;4023062;29;20198;-92
2023/04/20 02:23:29;;;;;;;4.97;2.70;;;7.20;99.90;;;;;;4038239;29;20208;-90
2023/04/20 02:25:30;;;;;;;4.70;2.50;;;7.20;99.90;;;;;;4022715;29;20627;-92
2023/04/20 02:27:31;;;;;;;8.80;2.70;;;7.20;99.90;;;;;;4038255;29;20233;-90
2023/04/20 02:29:32;;;;;;;7.70;2.63;;;7.10;99.90;;;;;;4022558;29;20755;-92
2023/04/20 02:31:33;;;;;;;4.43;2.00;;;7.00;99.90;;;;;;4038281;29;20166;-91
2023/04/20 02:33:34;;;;;;;5.23;2.73;;;7.00;99.90;;;;;;4022507;29;20214;-92
2023/04/20 02:35:35;;;;;;;6.90;2.73;;;7.00;99.90;;;;;;4038034;29;20204;-91
2023/04/20 02:37:36;;;;;;;5.00;2.50;;;7.10;99.90;;;;;;4022655;29;20182;-93
2023/04/20 02:39:38;;;;;;;5.37;2.33;;;7.10;99.90;;;;;;4038029;29;20181;-91
2023/04/20 02:41:39;;;;;;;6.27;2.70;;;7.20;99.90;;;;;;4022667;29;20663;-93
2023/04/20 02:43:40;;;;;;;7.50;2.53;;;7.10;99.90;;;;;;4037825;29;20265;-91
2023/04/20 02:45:41;;;;;;;8.43;2.60;;;7.10;99.90;;;;;;4022503;29;20170;-91
2023/04/20 02:47:43;;;;;;;4.67;2.60;;;7.10;99.90;;;;;;4022297;29;20186;-91
2023/04/20 02:49:46;;;;;;;7.23;2.30;;;7.10;99.90;;;;;;4022640;29;20221;-92
2023/04/20 02:51:48;;;;;;;9.60;2.63;;;7.10;99.90;;;;;;4037818;29;20180;-93
2023/04/20 02:53:48;;;;;;;8.80;2.80;;;7.10;99.90;;;;;;4022483;29;20198;-91
2023/04/20 02:55:55;;;;;;;7.23;2.53;;;7.10;99.90;;;;;;4037820;29;20178;-92
2023/04/20 02:58:10;;;;;;;5.57;2.57;;;7.10;99.90;;;;;;4037835;29;20177;-92
2023/04/20 03:00:49;;;;;;;7.83;2.43;;;7.00;99.90;;;;;;4011385;29;20182;-92
2023/04/20 03:02:50;;;;;;;6.53;2.30;;;7.10;99.90;;;;;;4006714;29;20186;-91
2023/04/20 03:04:51;;;;;;;6.73;2.43;;;7.10;99.90;;;;;;3991425;29;20260;-92
2023/04/20 03:06:54;;;;;;;6.23;2.60;;;7.10;99.90;;;;;;4037318;29;20280;-93
2023/04/20 03:09:02;;;;;;;6.73;2.40;;;7.20;99.90;;;;;;4037699;29;20205;-91
2023/04/20 03:11:29;;;;;;;4.87;2.57;;;7.20;99.90;;;;;;4023351;29;20181;-93
2023/04/20 03:13:32;;;;;;;7.97;2.40;;;7.10;99.90;;;;;;4022294;29;20198;-91
2023/04/20 03:15:35;;;;;;;6.37;2.70;;;7.10;99.90;;;;;;4038405;29;20257;-92
2023/04/20 03:17:41;;;;;;;8.60;2.33;;;7.00;99.90;;;;;;4022732;29;20292;-90
2023/04/20 03:19:43;;;;;;;5.13;2.60;;;7.10;99.90;;;;;;4037549;29;20666;-91
2023/04/20 03:21:44;;;;;;;5.20;2.37;;;7.10;99.90;;;;;;4022079;29;20174;-93
2023/04/20 03:23:45;;;;;;;8.23;2.40;;;7.10;99.90;;;;;;4022295;29;20198;-92
2023/04/20 03:25:46;;;;;;;6.73;2.33;;;7.00;99.90;;;;;;4037608;29;20190;-92
2023/04/20 03:27:54;;;;;;;10.70;2.60;;;7.00;99.90;;;;;;4023026;29;20177;-92
2023/04/20 03:29:56;;;;;;;5.03;2.10;;;7.00;99.90;;;;;;4021895;29;20265;-92
2023/04/20 03:31:57;;;;;;;8.50;2.60;;;7.10;99.90;;;;;;4037657;29;20627;-92
2023/04/20 03:33:58;;;;;;;10.87;2.90;;;7.10;99.90;;;;;;4022199;29;20193;-94
2023/04/20 03:35:59;;;;;;;4.87;2.53;;;7.10;99.90;;;;;;4037614;29;20169;-93
2023/04/20 03:38:00;;;;;;;7.17;2.80;;;7.00;99.90;;;;;;4022104;29;20275;-94
2023/04/20 03:40:01;;;;;;;17.60;3.00;;;7.10;99.90;;;;;;4037657;29;20173;-92
2023/04/20 03:42:02;;;;;;;8.53;2.77;;;7.20;99.90;;;;;;4022202;29;20180;-93
2023/04/20 03:44:03;;;;;;;6.77;2.60;;;7.40;99.90;;;;;;4037478;29;20229;-92
2023/04/20 03:46:04;;;;;;;9.57;2.73;;;7.50;99.90;;;;;;4022211;29;20182;-93
2023/04/20 03:48:05;;;;;;;9.03;2.70;;;7.40;99.90;;;;;;4037000;29;20185;-93
2023/04/20 03:50:06;;;;;;;41.87;5.33;;;7.40;99.90;;;;;;4037403;29;20217;-92
2023/04/20 03:52:07;;;;;;;4.97;2.77;;;7.20;99.90;;;;;;4037458;29;20205;-94
2023/04/20 03:54:07;;;;;;;6.17;2.67;;;7.30;99.90;;;;;;4037140;29;20250;-94
2023/04/20 03:56:09;;;;;;;10.47;2.90;;;7.20;99.90;;;;;;4021951;29;20202;-93
2023/04/20 03:58:10;;;;;;;4.80;2.60;;;7.30;99.90;;;;;;4037196;29;20185;-92
2023/04/20 04:00:19;;;;;;;5.03;2.30;;;7.30;99.90;;;;;;4022863;29;20173;-94
2023/04/20 04:02:21;;;;;;;8.80;2.70;;;7.30;99.90;;;;;;4037194;29;20181;-93
2023/04/20 04:04:22;;;;;;;6.00;2.40;;;7.30;99.90;;;;;;4037159;29;20208;-94
2023/04/20 04:06:23;;;;;;;5.03;2.60;;;7.30;99.90;;;;;;4037331;29;20213;-93
2023/04/20 04:08:25;;;;;;;5.37;2.57;;;7.30;99.90;;;;;;4021993;29;20194;-93
2023/04/20 04:10:26;;;;;;;13.67;3.00;;;7.30;99.90;;;;;;4021474;29;20182;-93
2023/04/20 04:12:27;;;;;;;16.20;2.93;;;7.30;99.90;;;;;;4037014;29;20532;-93
2023/04/20 04:14:29;;;;;;;15.70;3.00;;;7.10;99.90;;;;;;4037055;29;20696;-92
2023/04/20 04:16:31;;;;;;;10.10;2.70;;;6.90;99.90;;;;;;4036997;29;20189;-93
2023/04/20 04:18:33;;;;;;;9.93;2.80;;;6.20;99.90;;;;;;4037026;29;20661;-93
2023/04/20 04:20:38;;;;;;;6.40;2.70;;;6.00;99.90;;;;;;4022278;29;20208;-93
2023/04/20 04:22:40;;;;;;;15.23;3.07;;;5.80;99.90;;;;;;4037226;29;20722;-93
2023/04/20 04:25:02;;;;;;;5.77;2.63;;;5.60;99.90;;;;;;4037145;29;20667;-95
2023/04/20 04:27:04;;;;;;;8.00;2.67;;;5.50;99.90;;;;;;4037092;29;20217;-93
2023/04/20 04:29:07;;;;;;;7.40;2.90;;;5.60;99.90;;;;;;4021676;29;20604;-90
2023/04/20 04:31:09;;;;;;;6.57;3.10;;;5.70;99.90;;;;;;4037301;29;20178;-91
2023/04/20 04:33:11;;;;;;;4.67;2.30;;;5.60;99.90;;;;;;4036757;29;20221;-91
2023/04/20 04:35:14;;;;;;;4.73;2.40;;;5.50;99.90;;;;;;4037028;29;20198;-92
2023/04/20 04:37:16;;;;;;;20.57;3.13;;;5.50;99.90;;;;;;4021682;29;20182;-92
2023/04/20 04:39:24;;;;;;;7.23;2.60;;;5.40;99.90;;;;;;4023013;29;20174;-91
2023/04/20 04:41:36;;;;;;;6.03;2.60;;;5.50;99.90;;;;;;4025750;29;20178;-91
2023/04/20 04:43:47;;;;;;;5.30;2.30;;;5.60;99.90;;;;;;4039510;29;20249;-93
2023/04/20 04:45:57;;;;;;;11.27;2.73;;;5.70;99.90;;;;;;4025356;29;20178;-91
2023/04/20 04:47:58;;;;;;;7.20;2.57;;;5.70;99.90;;;;;;4039604;29;20182;-92
2023/04/20 04:50:00;;;;;;;5.23;2.43;;;5.60;99.90;;;;;;4024075;29;20269;-92
2023/04/20 04:52:02;;;;;;;6.20;2.27;;;6.20;99.90;;;;;;4039553;29;20174;-93
2023/04/20 04:54:03;;;;;;;6.80;2.50;;;6.60;99.90;;;;;;4039473;29;20204;-93
2023/04/20 04:56:05;;;;;;;3.80;2.20;;;6.80;99.90;;;;;;4023965;29;20186;-93
2023/04/20 04:58:06;;;;;;;4.40;2.27;;;7.10;99.90;;;;;;4039355;29;20245;-94
2023/04/20 05:00:11;;;;;;;10.60;2.50;;;7.00;99.90;;;;;;4023654;29;20178;-93
2023/04/20 05:02:12;;;;;;;5.43;2.33;;;6.90;99.90;;;;;;4039432;29;20173;-93
2023/04/20 05:04:12;;;;;;;8.17;2.30;;;6.90;99.90;;;;;;4039192;29;20675;-93
2023/04/20 05:06:13;;;;;;;10.53;2.47;;;6.70;99.90;;;;;;4023871;29;20671;-92
2023/04/20 05:08:14;;;;;;;4.50;2.20;;;6.90;99.90;;;;;;4039186;29;20659;-93
2023/04/20 05:10:15;;;;;;;7.77;2.43;;;6.90;99.90;;;;;;4023663;29;20735;-94
2023/04/20 05:12:15;;;;;;;9.20;2.53;;;6.80;99.90;;;;;;4023763;29;20182;-93
2023/04/20 05:14:16;;;;;;;8.47;2.83;;;6.80;99.90;;;;;;4023883;29;20206;-93
2023/04/20 05:16:17;;;;;;;9.13;2.50;;;7.00;99.90;;;;;;4023563;29;20202;-92
2023/04/20 05:18:18;;;;;;;6.73;2.63;;;7.00;99.90;;;;;;4023864;29;20214;-94
2023/04/20 05:20:19;;;;;;;12.17;2.60;;;7.10;99.90;;;;;;4039309;29;20189;-93
2023/04/20 05:22:20;;;;;;;7.20;2.23;;;7.30;99.90;;;;;;4023787;29;20194;-93
2023/04/20 05:24:20;;;;;;;12.73;2.80;;;7.20;99.90;;;;;;4038846;29;20567;-93
2023/04/20 05:26:21;;;;;;;5.53;2.27;;;7.40;99.90;;;;;;4038994;29;20209;-93
2023/04/20 05:28:22;;;;;;;5.73;2.47;;;7.40;99.90;;;;;;4023720;29;20270;-92
2023/04/20 05:30:23;;;;;;;9.83;2.50;;;7.50;99.90;;;;;;4038967;29;20182;-93
2023/04/20 05:32:23;;;;;;;13.10;2.40;;;7.70;99.90;;;;;;4038487;29;20181;-93
2023/04/20 05:34:24;;;;;;;20.60;3.43;;;7.90;99.90;;;;;;4023353;29;20202;-95
2023/04/20 05:36:26;;;;;;;6.20;2.77;;;7.80;99.90;;;;;;4038912;29;20177;-94
2023/04/20 05:38:26;;;;;;;7.60;2.80;;;7.80;99.90;;;;;;4023802;29;20210;-93
2023/04/20 05:40:27;;;;;;;8.93;2.77;;;7.70;99.90;;;;;;4023643;29;20198;-93
2023/04/20 05:42:28;;;;;;;17.90;3.00;;;7.80;99.90;;;;;;4023395;29;20596;-95
2023/04/20 05:44:29;;;;;;;5.50;2.53;;;7.60;99.90;;;;;;4023614;29;20202;-91
2023/04/20 05:46:30;;;;;;;14.47;2.93;;;7.40;99.90;;;;;;4023527;29;20181;-92
2023/04/20 05:48:31;;;;;;;7.43;2.57;;;7.70;99.90;;;;;;4038549;29;20718;-91
2023/04/20 05:50:32;;;;;;;4.83;2.30;;;8.30;99.90;;;;;;4022739;29;20276;-90
2023/04/20 05:52:32;;;;;;;6.47;2.50;;;8.40;99.90;;;;;;4038194;29;20233;-90
2023/04/20 05:54:33;;;;;;;7.87;2.80;;;8.50;99.90;;;;;;4023070;29;20751;-93
2023/04/20 05:56:34;;;;;;;4.80;2.43;;;8.50;99.90;;;;;;4023307;29;20174;-94
2023/04/20 05:58:36;;;;;;;7.90;3.17;;;8.40;99.90;;;;;;4023486;29;20309;-92
2023/04/20 06:00:37;;;;;;;5.73;2.40;;;8.30;99.90;;;;;;4023097;29;20680;-92
2023/04/20 06:02:38;;;;;;;14.63;2.60;;;8.20;99.90;;;;;;4038512;29;20173;-92
2023/04/20 06:04:39;;;;;;;3.87;2.30;;;8.20;99.90;;;;;;4023111;29;20206;-93
2023/04/20 06:06:40;;;;;;;5.70;2.70;;;8.20;99.90;;;;;;4023160;29;20171;-92
2023/04/20 06:08:41;;;;;;;6.47;2.60;;;8.30;99.90;;;;;;4038312;29;20202;-93
2023/04/20 06:10:42;;;;;;;5.20;2.77;;;8.20;99.90;;;;;;4023113;29;20266;-92
2023/04/20 06:12:42;;;;;;;6.30;2.90;;;8.20;99.90;;;;;;4038165;29;20179;-93
2023/04/20 06:14:43;;;;;;;9.80;2.80;;;8.20;99.90;;;;;;4022802;29;20206;-92
2023/04/20 06:16:44;;;;;;;14.07;3.10;;;8.20;99.90;;;;;;4038450;29;20194;-92
2023/04/20 06:18:44;;;;;;;14.33;3.03;;;8.10;99.90;;;;;;4038242;29;20267;-92
2023/04/20 06:20:45;;;;;;;5.40;2.73;;;8.10;99.90;;;;;;4023018;29;20230;-91
2023/04/20 06:22:46;;;;;;;5.40;2.57;;;8.20;99.90;;;;;;4038214;29;20173;-93
2023/04/20 06:24:47;;;;;;;7.57;2.80;;;8.20;99.90;;;;;;4022940;29;20257;-92
2023/04/20 06:26:48;;;;;;;8.20;2.90;;;8.30;99.90;;;;;;4023221;29;20175;-93
2023/04/20 06:28:50;;;;;;;15.90;3.43;;;8.30;99.90;;;;;;4023068;29;20709;-93
2023/04/20 06:30:51;;;;;;;6.40;2.90;;;8.30;99.90;;;;;;4023176;29;20182;-91
2023/04/20 06:32:52;;;;;;;5.40;2.77;;;8.20;99.90;;;;;;4038128;29;20225;-91
2023/04/20 06:34:52;;;;;;;10.83;3.10;;;8.20;99.90;;;;;;4022966;29;20659;-91
2023/04/20 06:36:53;;;;;;;7.73;2.33;;;8.30;99.90;;;;;;4038018;29;20678;-92
2023/04/20 06:38:54;;;;;;;9.33;3.00;;;8.40;99.90;;;;;;4022545;29;20219;-91
2023/04/20 06:40:57;;;;;;;9.07;3.00;;;8.40;99.90;;;;;;4037917;29;20188;-92
2023/04/20 06:42:58;;;;;;;8.03;2.87;;;8.30;99.90;;;;;;4022752;29;20194;-92
2023/04/20 06:45:00;;;;;;;12.70;3.27;;;8.40;99.90;;;;;;4037838;29;20229;-90
2023/04/20 06:47:01;;;;;;;7.77;3.47;;;8.40;99.90;;;;;;4037910;29;20170;-90
2023/04/20 06:49:02;;;;;;;5.57;3.23;;;8.50;99.90;;;;;;4038035;29;20217;-91
2023/04/20 06:51:03;;;;;;;6.27;2.93;;;8.50;99.90;;;;;;4022625;29;20178;-91
2023/04/20 06:53:04;;;;;;;14.90;3.40;;;8.50;99.90;;;;;;4037929;29;20270;-91
2023/04/20 06:55:05;;;;;;;9.40;3.20;;;8.30;99.90;;;;;;4022160;29;20194;-91
2023/04/20 06:57:06;;;;;;;7.87;3.67;;;8.20;99.90;;;;;;4022519;29;20171;-92
2023/04/20 06:59:07;;;;;;;7.30;4.03;;;8.20;99.90;;;;;;4022450;29;20174;-92
2023/04/20 07:01:07;;;;;;;6.07;4.17;;;8.10;99.90;;;;;;4022406;29;20175;-92
2023/04/20 07:03:08;;;;;;;11.83;4.23;;;8.20;99.90;;;;;;4022137;29;20268;-91
2023/04/20 07:05:09;;;;;;;11.23;4.23;;;8.20;99.90;;;;;;4022449;29;20182;-91
2023/04/20 07:07:10;;;;;;;8.53;4.90;;;8.20;99.90;;;;;;4022389;29;20265;-91
2023/04/20 07:09:11;;;;;;;8.27;4.27;;;8.10;99.90;;;;;;4037688;29;20225;-91
2023/04/20 07:11:12;;;;;;;11.07;4.47;;;8.00;99.90;;;;;;4022345;29;20238;-92
2023/04/20 07:13:13;;;;;;;11.37;4.83;;;7.90;99.90;;;;;;4037517;29;20277;-92
2023/04/20 07:15:14;;;;;;;11.17;4.77;;;7.70;99.90;;;;;;4037586;29;20184;-92
2023/04/20 07:17:15;;;;;;;9.17;4.03;;;7.70;99.90;;;;;;4022084;29;20258;-91
2023/04/20 07:19:16;;;;;;;7.50;4.40;;;7.70;99.90;;;;;;4037492;29;20663;-91
2023/04/20 07:21:16;;;;;;;11.37;4.47;;;7.70;99.90;;;;;;4022371;29;20541;-91
2023/04/20 07:23:17;;;;;;;12.87;4.63;;;7.60;99.90;;;;;;4022098;29;20269;-93
2023/04/20 07:25:18;;;;;;;10.90;4.03;;;7.50;99.90;;;;;;4022102;29;20562;-91
2023/04/20 07:27:18;;;;;;;6.17;4.33;;;7.50;99.90;;;;;;4022219;29;20185;-92
2023/04/20 07:29:19;;;;;;;8.30;4.27;;;7.50;99.90;;;;;;4021934;29;20209;-92
2023/04/20 07:31:20;;;;;;;8.20;4.40;;;7.50;99.90;;;;;;4022203;29;20336;-91
2023/04/20 07:33:21;;;;;;;12.70;4.63;;;7.50;99.90;;;;;;4021970;29;20186;-91
2023/04/20 07:35:21;;;;;;;8.13;4.33;;;7.50;99.90;;;;;;4022271;29;20418;-92
2023/04/20 07:37:23;;;;;;;8.83;4.27;;;7.60;99.90;;;;;;4022223;29;20211;-91
2023/04/20 07:39:26;;;;;;;8.47;4.00;;;7.70;99.90;;;;;;4022187;29;20174;-91
2023/04/20 07:41:26;;;;;;;12.93;4.03;;;7.70;99.90;;;;;;4021989;29;20276;-92
2023/04/20 07:43:27;;;;;;;8.20;4.50;;;7.80;99.90;;;;;;4037092;29;20249;-92
2023/04/20 07:45:28;;;;;;;7.40;4.20;;;7.70;99.90;;;;;;4022183;29;20269;-91
2023/04/20 07:47:28;;;;;;;11.43;4.50;;;7.70;99.90;;;;;;4037236;29;20276;-93
2023/04/20 07:49:29;;;;;;;15.77;4.73;;;7.70;99.90;;;;;;4022454;29;20308;-92
2023/04/20 07:51:31;;;;;;;11.40;4.30;;;7.80;99.90;;;;;;4037469;29;20643;-92
2023/04/20 07:53:34;;;;;;;10.13;4.97;;;7.70;99.90;;;;;;4021884;29;20209;-90
2023/04/20 07:55:34;;;;;;;10.60;4.47;;;7.70;99.90;;;;;;4037577;29;20636;-91
2023/04/20 07:57:35;;;;;;;9.50;4.20;;;7.70;99.90;;;;;;4022100;29;20182;-91
2023/04/20 07:59:36;;;;;;;13.57;4.73;;;7.80;99.90;;;;;;4037289;29;20245;-92
2023/04/20 08:01:37;;;;;;;10.97;4.30;;;7.80;99.90;;;;;;4022170;29;20206;-93
2023/04/20 08:03:37;;;;;;;9.57;4.60;;;7.80;99.90;;;;;;4037333;29;20225;-90
2023/04/20 08:05:39;;;;;;;8.93;4.63;;;7.90;99.90;;;;;;4022111;29;20178;-92
2023/04/20 08:07:40;;;;;;;9.10;4.47;;;7.80;99.90;;;;;;4021982;29;20593;-93
2023/04/20 08:09:41;;;;;;;7.50;4.43;;;7.90;99.90;;;;;;4036843;29;20341;-92
2023/04/20 08:11:48;;;;;;;8.03;4.03;;;7.90;99.90;;;;;;4021868;29;20200;-91
2023/04/20 08:13:48;;;;;;;10.50;4.90;;;7.90;99.90;;;;;;4036845;29;20253;-91
2023/04/20 08:15:49;;;;;;;6.80;4.30;;;8.00;99.90;;;;;;4039926;29;20193;-92
2023/04/20 08:17:51;;;;;;;7.97;4.53;;;8.20;99.90;;;;;;4024615;29;20217;-93
2023/04/20 08:19:52;;;;;;;7.77;4.40;;;8.30;99.90;;;;;;4039993;29;20643;-93
2023/04/20 08:21:53;;;;;;;7.93;4.33;;;8.30;99.90;;;;;;4039956;29;20170;-91
2023/04/20 08:23:54;;;;;;;11.70;4.87;;;8.30;99.90;;;;;;4024534;29;20221;-92
2023/04/20 08:25:55;;;;;;;7.37;4.67;;;8.30;99.90;;;;;;4039629;29;20201;-94
2023/04/20 08:27:56;;;;;;;8.33;4.47;;;8.20;99.90;;;;;;4040059;29;20248;-91
2023/04/20 08:29:57;;;;;;;9.53;4.80;;;8.20;99.90;;;;;;4039887;29;20229;-91
2023/04/20 08:31:57;;;;;;;9.43;4.73;;;8.20;99.90;;;;;;4024361;29;20166;-92
2023/04/20 08:33:58;;;;;;;10.83;4.70;;;8.10;99.90;;;;;;4039652;29;20209;-94
2023/04/20 08:35:59;;;;;;;8.60;4.53;;;8.00;99.90;;;;;;4024851;29;20234;-93
2023/04/20 08:38:00;;;;;;;7.37;4.13;;;8.00;99.90;;;;;;4024325;29;20194;-92
2023/04/20 08:40:00;;;;;;;10.37;4.63;;;8.10;99.90;;;;;;4024212;29;20182;-92
2023/04/20 08:42:02;;;;;;;7.27;4.40;;;8.30;99.90;;;;;;4039698;29;20209;-94
2023/04/20 08:44:03;;;;;;;8.80;4.40;;;8.50;99.90;;;;;;4023863;29;20202;-92
2023/04/20 08:46:04;;;;;;;13.40;4.43;;;8.60;99.90;;;;;;4039599;29;20275;-93
2023/04/20 08:48:09;;;;;;;9.03;4.30;;;8.60;99.90;;;;;;4024333;29;20269;-93
2023/04/20 08:50:14;;;;;;;9.27;4.57;;;8.60;99.90;;;;;;4024475;29;20222;-95
2023/04/20 08:52:15;;;;;;;8.83;4.53;;;8.60;99.90;;;;;;4024233;29;20174;-93
2023/04/20 08:54:16;;;;;;;15.40;4.90;;;8.70;99.90;;;;;;4039632;29;20208;-92
2023/04/20 08:56:16;;;;;;;9.40;4.70;;;8.90;99.90;;;;;;4024309;29;20628;-92
2023/04/20 08:58:17;;;;;;;11.00;5.13;;;9.20;99.90;;;;;;4039532;29;20185;-93
2023/04/20 09:00:18;;;;;;;12.80;4.27;;;9.40;99.90;;;;;;4039609;29;20178;-93
2023/04/20 09:02:19;;;;;;;11.07;5.37;;;9.70;99.90;;;;;;4024343;29;20182;-91
2023/04/20 09:04:25;;;;;;;8.73;4.27;;;9.80;99.90;;;;;;4039610;29;20599;-93
2023/04/20 09:06:26;;;;;;;7.77;4.60;;;9.70;99.90;;;;;;4024943;29;20190;-94
2023/04/20 09:08:37;;;;;;;7.27;4.70;;;9.70;99.90;;;;;;4040465;29;20174;-91
2023/04/20 09:10:42;;;;;;;9.03;4.50;;;9.80;99.90;;;;;;4024479;29;20213;-93
2023/04/20 09:12:43;;;;;;;8.53;4.33;;;9.80;99.90;;;;;;4023964;29;20178;-93
2023/04/20 09:14:46;;;;;;;15.60;5.00;;;9.80;99.90;;;;;;4024562;29;20209;-92
2023/04/20 09:16:52;;;;;;;8.17;4.20;;;9.80;99.90;;;;;;4024190;29;20186;-91
2023/04/20 09:18:54;;;;;;;10.17;4.40;;;9.70;99.90;;;;;;4024925;29;20635;-96
2023/04/20 09:20:55;;;;;;;9.93;4.40;;;9.80;99.90;;;;;;4024114;29;20181;-96
2023/04/20 09:22:56;;;;;;;7.07;4.60;;;9.50;99.90;;;;;;4023730;29;20221;-94
2023/04/20 09:24:57;;;;;;;8.57;4.70;;;9.40;99.90;;;;;;4038701;29;20228;-91
2023/04/20 09:26:58;;;;;;;11.57;4.70;;;9.40;99.90;;;;;;4039347;29;20182;-92
2023/04/20 09:29:00;;;;;;;15.00;5.47;;;9.40;99.90;;;;;;4023949;29;20210;-90
2023/04/20 09:31:01;;;;;;;8.97;4.53;;;9.40;99.90;;;;;;4039127;29;20273;-91
2023/04/20 09:33:03;;;;;;;9.67;4.63;;;9.50;99.90;;;;;;4039748;29;20181;-93
2023/04/20 09:35:06;;;;;;;10.90;4.97;;;9.70;99.90;;;;;;4024065;29;20245;-91
2023/04/20 09:37:08;;;;;;;8.47;4.57;;;9.60;99.90;;;;;;4023813;29;20189;-92
2023/04/20 09:39:15;;;;;;;12.77;4.60;;;9.60;99.90;;;;;;4023598;29;20181;-91
2023/04/20 09:41:17;;;;;;;14.63;4.60;;;9.80;99.90;;;;;;4024182;29;20565;-96
2023/04/20 09:43:19;;;;;;;9.93;4.80;;;10.00;99.90;;;;;;4023510;29;20182;-92
2023/04/20 09:45:20;;;;;;;7.77;4.97;;;10.20;99.90;;;;;;4023640;29;20256;-93
2023/04/20 09:47:21;;;;;;;8.30;4.40;;;10.00;99.90;;;;;;4038864;29;20182;-91
2023/04/20 09:49:22;;;;;;;10.33;5.43;;;10.10;99.90;;;;;;4023494;29;20217;-93
2023/04/20 09:51:26;;;;;;;7.43;4.23;;;10.20;99.90;;;;;;4039034;29;20173;-90
2023/04/20 09:53:29;;;;;;;12.97;5.43;;;10.30;99.90;;;;;;4023683;29;20301;-91
2023/04/20 09:55:31;;;;;;;11.40;4.50;;;10.30;99.90;;;;;;4039054;29;20714;-92
2023/04/20 09:57:33;;;;;;;12.13;4.87;;;10.10;99.90;;;;;;4023668;29;20186;-95
2023/04/20 09:59:34;;;;;;;11.57;5.10;;;10.10;99.90;;;;;;4023493;29;20183;-91
2023/04/20 10:01:36;;;;;;;11.13;4.30;;;10.30;99.90;;;;;;4038991;29;20276;-91
2023/04/20 10:03:41;;;;;;;9.40;4.20;;;10.20;99.90;;;;;;4023390;29;20205;-92
2023/04/20 10:05:42;;;;;;;8.77;4.60;;;10.10;99.90;;;;;;4023449;29;20628;-91
2023/04/20 10:07:43;;;;;;;9.87;4.17;;;10.10;99.90;;;;;;4038720;29;20182;-91
2023/04/20 10:09:44;;;;;;;6.50;4.10;;;9.90;99.90;;;;;;4023359;29;20214;-96
2023/04/20 10:11:45;;;;;;;11.50;5.00;;;9.80;99.90;;;;;;4038817;29;20185;-92
2023/04/20 10:13:45;;;;;;;9.10;4.67;;;9.80;99.90;;;;;;4023392;29;20205;-91
2023/04/20 10:15:46;;;;;;;10.10;4.27;;;9.90;99.90;;;;;;4023142;29;20225;-90
2023/04/20 10:17:47;;;;;;;7.27;4.30;;;9.80;99.90;;;;;;4023273;29;20842;-91
2023/04/20 10:19:48;;;;;;;9.87;4.87;;;9.70;99.90;;;;;;4023024;29;20592;-91
2023/04/20 10:21:50;;;;;;;6.27;3.83;;;9.60;99.90;;;;;;4023011;29;20194;-91
2023/04/20 10:23:51;;;;;;;8.17;4.00;;;9.50;99.90;;;;;;4022826;29;20614;-90
2023/04/20 10:26:00;;;;;;;10.60;3.80;;;9.50;99.90;;;;;;4038819;29;20168;-91
2023/04/20 10:28:05;;;;;;;8.53;4.00;;;9.60;99.90;;;;;;4023083;29;20188;-91
2023/04/20 10:30:12;;;;;;;8.37;3.93;;;9.80;99.90;;;;;;4022939;29;20213;-91
2023/04/20 10:32:27;;;;;;;7.27;4.20;;;9.70;99.90;;;;;;4022964;29;20261;-90
2023/04/20 10:34:32;;;;;;;7.17;3.53;;;9.60;99.90;;;;;;4022752;29;20305;-91
2023/04/20 10:36:35;;;;;;;9.53;3.77;;;9.60;99.90;;;;;;4022462;29;20221;-91
2023/04/20 10:38:36;;;;;;;9.60;4.00;;;9.60;99.90;;;;;;4022413;29;20242;-91
2023/04/20 10:40:37;;;;;;;12.10;4.23;;;9.60;99.90;;;;;;4038011;29;20659;-92
2023/04/20 10:42:44;;;;;;;11.93;4.07;;;9.70;99.90;;;;;;4022813;29;20177;-91